Time;durP1;ratioP1;P1;durP2;ratioP2;P2;SDS_P1;SDS_P2;PMS_P1;PMS_P2;Temp;Humidity;BMP_temperature;BMP_pressure;BME280_temperature;BME280_humidity;BME280_pressure;Samples;Min_cycle;Max_cycle;Signal;HPM_P1;HPM_P2
2024/01/15 00:02:06;;;;;;;;;18.25;14.50;;;;;2.72;69.59;100824.91;5107694;27;46296;-50
2024/01/15 00:04:35;;;;;;;;;18.50;18.50;;;;;2.72;69.32;100814.41;5107122;27;45867;-48
2024/01/15 00:07:01;;;;;;;;;23.50;18.25;;;;;2.73;69.77;100808.25;5125755;27;45695;-48
2024/01/15 00:09:27;;;;;;;;;20.50;14.00;;;;;2.74;69.50;100807.38;5111366;27;64308;-47
2024/01/15 00:11:52;;;;;;;;;19.00;16.50;;;;;2.72;68.63;100802.13;5108121;27;46185;-46
2024/01/15 00:14:20;;;;;;;;;20.50;15.50;;;;;2.72;69.37;100799.50;5108688;27;45445;-47
2024/01/15 00:16:45;;;;;;;;;23.75;19.25;;;;;2.73;69.67;100798.63;5113250;27;45233;-49
2024/01/15 00:19:10;;;;;;;;;15.25;14.75;;;;;2.74;69.37;100796.88;5109667;27;45604;-49
2024/01/15 00:21:36;;;;;;;;;20.00;12.75;;;;;2.75;69.58;100794.22;5104168;27;75419;-49
2024/01/15 00:24:01;;;;;;;;;16.75;13.75;;;;;2.76;69.83;100787.19;5111155;27;72159;-49
2024/01/15 00:26:27;;;;;;;;;18.25;17.50;;;;;2.75;69.63;100786.34;5104831;27;45376;-48
2024/01/15 00:28:52;;;;;;;;;21.00;16.75;;;;;2.76;69.81;100777.53;5105791;27;45672;-50
2024/01/15 00:31:17;;;;;;;;;19.75;19.00;;;;;2.75;69.63;100782.81;5110553;27;65639;-50
2024/01/15 00:33:43;;;;;;;;;23.75;18.75;;;;;2.76;69.45;100785.41;5110363;27;45401;-50
2024/01/15 00:36:08;;;;;;;;;14.00;13.00;;;;;2.77;69.78;100779.28;5114085;27;47258;-48
2024/01/15 00:38:34;;;;;;;;;23.25;17.50;;;;;2.80;69.82;100783.59;5112502;27;45520;-49
2024/01/15 00:40:59;;;;;;;;;28.75;17.25;;;;;2.82;69.77;100779.19;5109787;27;64453;-48
2024/01/15 00:43:24;;;;;;;;;19.25;14.75;;;;;2.85;69.80;100778.28;5107720;27;73346;-46
2024/01/15 00:45:50;;;;;;;;;22.00;18.25;;;;;2.87;69.99;100766.84;5110370;27;69260;-46
2024/01/15 00:48:15;;;;;;;;;18.50;15.25;;;;;2.88;69.32;100763.34;5111198;27;64170;-46
2024/01/15 00:50:40;;;;;;;;;16.75;13.50;;;;;2.89;69.81;100759.78;5108978;27;65886;-46
2024/01/15 00:53:05;;;;;;;;;22.25;15.25;;;;;2.90;69.95;100751.00;5107240;27;65462;-48
2024/01/15 00:55:31;;;;;;;;;23.25;15.25;;;;;2.90;69.83;100753.63;5113197;27;68805;-48
2024/01/15 00:57:56;;;;;;;;;23.50;16.50;;;;;2.92;69.91;100749.22;5116049;27;45474;-49
2024/01/15 01:00:22;;;;;;;;;18.00;17.25;;;;;2.94;69.93;100746.56;5114730;27;73526;-45
2024/01/15 01:02:47;;;;;;;;;13.75;13.75;;;;;2.96;69.88;100752.69;5115396;27;68371;-48
2024/01/15 01:05:12;;;;;;;;;17.25;16.75;;;;;2.98;70.09;100751.72;5112395;27;68512;-47
2024/01/15 01:07:38;;;;;;;;;20.25;13.00;;;;;2.99;69.77;100749.97;5120343;27;45505;-48
2024/01/15 01:10:04;;;;;;;;;23.00;19.25;;;;;3.01;69.86;100747.31;5116151;27;46141;-48
2024/01/15 01:12:29;;;;;;;;;17.25;14.25;;;;;3.00;69.85;100743.84;5118771;27;45744;-51
2024/01/15 01:14:55;;;;;;;;;18.25;15.25;;;;;3.01;69.86;100735.03;5114898;27;45503;-47
2024/01/15 01:17:20;;;;;;;;;18.00;15.75;;;;;3.03;69.88;100742.91;5122218;27;45358;-48
2024/01/15 01:19:45;;;;;;;;;23.50;19.50;;;;;3.03;70.18;100740.28;5115738;27;72362;-48
2024/01/15 01:22:11;;;;;;;;;18.50;15.50;;;;;3.05;70.36;100743.72;5121183;27;71911;-50
2024/01/15 01:24:36;;;;;;;;;22.75;15.75;;;;;3.06;69.99;100730.53;5110464;27;68175;-49
2024/01/15 01:27:01;;;;;;;;;19.25;15.75;;;;;3.08;70.26;100728.78;5117802;27;62582;-49
2024/01/15 01:29:27;;;;;;;;;18.75;17.50;;;;;3.09;70.12;100721.72;5120247;27;47025;-50
2024/01/15 01:31:52;;;;;;;;;22.75;18.25;;;;;3.09;70.40;100725.25;5115311;27;45327;-48
2024/01/15 01:34:17;;;;;;;;;16.75;13.25;;;;;3.10;70.24;100719.09;5118963;27;69378;-48
2024/01/15 01:36:43;;;;;;;;;11.75;9.25;;;;;3.12;70.29;100719.91;5115836;27;45621;-47
2024/01/15 01:39:09;;;;;;;;;17.75;15.75;;;;;3.13;70.22;100721.66;5117435;27;45403;-47
2024/01/15 01:41:34;;;;;;;;;21.75;15.75;;;;;3.17;70.20;100730.34;5121084;27;45558;-50
2024/01/15 01:44:00;;;;;;;;;14.50;11.75;;;;;3.18;70.40;100718.94;5114702;27;45449;-48
2024/01/15 01:46:27;;;;;;;;;17.75;16.25;;;;;3.17;70.28;100716.31;5116360;27;65076;-48
2024/01/15 01:48:52;;;;;;;;;19.25;12.50;;;;;3.12;70.16;100706.78;5115629;27;47172;-47
2024/01/15 01:51:18;;;;;;;;;19.75;15.75;;;;;3.11;70.34;100717.31;5119863;27;45558;-47
2024/01/15 01:53:44;;;;;;;;;16.00;14.25;;;;;3.10;70.08;100708.59;5119717;27;65725;-48
2024/01/15 01:56:09;;;;;;;;;15.00;13.50;;;;;3.07;70.80;100708.63;5117080;27;66148;-50
2024/01/15 01:58:35;;;;;;;;;21.00;16.00;;;;;3.05;70.35;100718.31;5113592;27;45280;-49
2024/01/15 02:01:00;;;;;;;;;20.00;17.75;;;;;3.04;70.40;100700.81;5119291;27;47599;-47
2024/01/15 02:03:27;;;;;;;;;17.50;15.50;;;;;3.06;70.84;100685.00;5109953;27;69167;-48
2024/01/15 02:05:52;;;;;;;;;17.25;14.00;;;;;3.04;70.84;100682.41;5119310;27;45581;-46
2024/01/15 02:08:18;;;;;;;;;17.00;14.00;;;;;3.04;70.45;100671.91;5100221;27;47239;-47
2024/01/15 02:10:43;;;;;;;;;18.75;13.25;;;;;3.02;70.48;100673.69;5118233;27;45393;-46
2024/01/15 02:13:09;;;;;;;;;19.75;17.50;;;;;2.98;70.68;100669.41;5112277;27;69167;-46
2024/01/15 02:15:34;;;;;;;;;15.00;13.50;;;;;2.94;71.19;100655.44;5116467;27;45404;-48
2024/01/15 02:18:01;;;;;;;;;14.00;14.00;;;;;2.95;71.41;100653.72;5112446;27;62484;-46
2024/01/15 02:20:27;;;;;;;;;15.00;13.50;;;;;2.99;71.42;100665.88;5108937;27;45404;-51
2024/01/15 02:22:53;;;;;;;;;19.00;18.25;;;;;3.01;70.88;100669.31;5120673;27;45420;-48
2024/01/15 02:25:18;;;;;;;;;17.25;15.75;;;;;3.03;71.13;100683.31;5113749;27;45284;-47
2024/01/15 02:27:44;;;;;;;;;19.00;14.00;;;;;3.05;71.37;100699.94;5111905;27;46107;-51
2024/01/15 02:30:12;;;;;;;;;13.25;11.00;;;;;3.08;71.35;100696.38;5116311;27;45357;-49
2024/01/15 02:32:37;;;;;;;;;17.50;13.50;;;;;3.08;71.69;100702.47;5116132;27;45450;-51
2024/01/15 02:35:03;;;;;;;;;23.25;18.00;;;;;3.12;71.36;100703.28;5116207;27;45556;-50
2024/01/15 02:37:28;;;;;;;;;20.75;20.00;;;;;3.13;70.76;100698.00;5113524;27;46292;-47
2024/01/15 02:39:53;;;;;;;;;21.25;13.75;;;;;3.12;70.86;100693.63;5117871;27;63272;-49
2024/01/15 02:42:19;;;;;;;;;21.25;14.25;;;;;3.11;70.79;100693.66;5115984;27;68359;-50
2024/01/15 02:44:44;;;;;;;;;20.25;17.75;;;;;3.10;71.19;100686.69;5114728;27;70464;-48
2024/01/15 02:47:09;;;;;;;;;13.25;9.25;;;;;3.10;71.41;100681.41;5111534;27;68169;-50
2024/01/15 02:49:35;;;;;;;;;14.50;10.00;;;;;3.10;71.22;100684.94;5115296;27;50889;-49
2024/01/15 02:52:00;;;;;;;;;23.50;20.50;;;;;3.10;70.91;100690.19;5120027;27;51507;-48
2024/01/15 02:54:25;;;;;;;;;21.25;19.25;;;;;3.08;71.06;100694.59;5118594;27;51132;-47
2024/01/15 02:56:51;;;;;;;;;19.50;16.25;;;;;3.06;71.09;100682.38;5138152;27;65678;-47
2024/01/15 02:59:16;;;;;;;;;14.75;14.00;;;;;3.06;71.21;100682.38;5114669;27;58271;-50
2024/01/15 03:01:41;;;;;;;;;17.50;15.00;;;;;3.06;71.45;100680.59;5119943;27;54853;-50
2024/01/15 03:04:07;;;;;;;;;14.50;12.75;;;;;3.08;71.35;100680.59;5108493;27;68415;-46
2024/01/15 03:06:32;;;;;;;;;16.25;13.00;;;;;3.09;71.43;100684.94;5116094;27;73407;-45
2024/01/15 03:08:57;;;;;;;;;18.00;15.25;;;;;3.09;71.48;100683.19;5118224;27;70427;-48
2024/01/15 03:11:22;;;;;;;;;14.00;11.00;;;;;3.10;71.52;100692.81;5117401;27;68618;-47
2024/01/15 03:13:48;;;;;;;;;23.75;19.50;;;;;3.11;71.13;100694.53;5118563;27;45322;-49
2024/01/15 03:16:13;;;;;;;;;19.25;14.00;;;;;3.09;71.62;100698.97;5118900;27;74492;-47
2024/01/15 03:18:38;;;;;;;;;19.75;17.75;;;;;3.08;71.58;100705.13;5120160;27;45393;-49
2024/01/15 03:21:04;;;;;;;;;17.75;14.75;;;;;3.08;71.70;100696.38;5117244;27;67693;-46
2024/01/15 03:23:30;;;;;;;;;17.50;15.25;;;;;3.09;72.00;100703.34;5119601;27;45341;-46
2024/01/15 03:25:55;;;;;;;;;18.75;14.75;;;;;3.09;71.65;100708.59;5118572;27;64066;-47
2024/01/15 03:28:20;;;;;;;;;19.75;12.50;;;;;3.09;71.91;100709.47;5118109;27;70036;-47
2024/01/15 03:30:46;;;;;;;;;23.00;14.00;;;;;3.11;71.49;100697.16;5118897;27;66033;-50
2024/01/15 03:33:11;;;;;;;;;14.50;12.00;;;;;3.12;72.22;100698.88;5114237;27;50205;-46
2024/01/15 03:35:36;;;;;;;;;19.25;16.75;;;;;3.16;71.86;100699.69;5116206;27;60183;-50
2024/01/15 03:38:02;;;;;;;;;17.25;14.00;;;;;3.17;72.05;100692.66;5112098;27;45559;-51
2024/01/15 03:40:27;;;;;;;;;15.50;12.25;;;;;3.18;72.09;100694.41;5116445;27;68021;-48
2024/01/15 03:42:53;;;;;;;;;21.50;17.00;;;;;3.17;72.50;100683.03;5118368;27;66567;-49
2024/01/15 03:45:19;;;;;;;;;8.50;8.50;;;;;3.17;72.21;100688.28;5117999;27;45407;-49
2024/01/15 03:47:44;;;;;;;;;22.75;13.75;;;;;3.18;71.91;100690.03;5118788;27;45420;-47
2024/01/15 03:50:09;;;;;;;;;19.50;14.25;;;;;3.19;72.48;100683.84;5117814;27;65159;-48
2024/01/15 03:52:35;;;;;;;;;27.75;20.25;;;;;3.19;71.91;100689.09;5115258;27;69547;-48
2024/01/15 03:55:00;;;;;;;;;14.00;13.75;;;;;3.18;72.47;100686.53;5118228;27;73254;-49
2024/01/15 03:57:25;;;;;;;;;16.75;14.75;;;;;3.12;71.77;100674.38;5117687;27;69303;-50
2024/01/15 03:59:51;;;;;;;;;17.00;11.50;;;;;3.07;72.78;100666.56;5119634;27;45430;-50
2024/01/15 04:02:16;;;;;;;;;18.25;15.50;;;;;3.06;72.84;100672.72;5117438;27;62122;-51
2024/01/15 04:04:43;;;;;;;;;13.50;11.00;;;;;3.04;73.62;100661.41;5102600;27;74497;-48
2024/01/15 04:07:12;;;;;;;;;25.00;17.75;;;;;3.00;73.39;100651.84;5116015;27;45397;-47
2024/01/15 04:09:37;;;;;;;;;25.25;15.75;;;;;2.96;73.15;100648.41;5116879;27;68687;-50
2024/01/15 04:12:03;;;;;;;;;11.00;9.50;;;;;2.89;73.49;100645.94;5119202;27;45487;-46
2024/01/15 04:14:28;;;;;;;;;13.00;13.00;;;;;2.83;73.83;100639.06;5119700;27;46112;-49
2024/01/15 04:16:54;;;;;;;;;13.75;11.75;;;;;2.85;73.96;100639.88;5117617;27;45282;-49
2024/01/15 04:19:19;;;;;;;;;14.25;14.25;;;;;2.88;74.25;100647.72;5117997;27;64395;-49
2024/01/15 04:21:44;;;;;;;;;12.25;12.25;;;;;2.93;73.92;100640.59;5119421;27;45513;-50
2024/01/15 04:24:10;;;;;;;;;9.25;9.00;;;;;2.98;74.07;100640.50;5118847;27;53681;-49
2024/01/15 04:26:35;;;;;;;;;13.50;12.00;;;;;3.01;74.40;100629.06;5118550;27;67960;-49
2024/01/15 04:29:00;;;;;;;;;17.00;11.00;;;;;3.05;74.10;100631.59;5117043;27;66601;-49
2024/01/15 04:31:28;;;;;;;;;9.00;8.00;;;;;3.07;74.62;100631.56;5118556;27;45561;-51
2024/01/15 04:33:54;;;;;;;;;10.25;7.00;;;;;3.11;74.26;100628.81;5117137;27;45429;-51
2024/01/15 04:36:19;;;;;;;;;15.50;12.00;;;;;3.12;74.33;100624.44;5111349;27;66804;-50
2024/01/15 04:38:44;;;;;;;;;22.75;12.00;;;;;3.12;74.55;100620.03;5118825;27;45542;-49
2024/01/15 04:41:12;;;;;;;;;14.00;10.75;;;;;3.14;74.48;100620.00;5117502;27;54261;-48
2024/01/15 04:43:37;;;;;;;;;11.33;9.67;;;;;3.16;74.80;100620.84;5115361;27;46926;-50
2024/01/15 04:46:05;;;;;;;;;18.50;12.00;;;;;3.19;74.55;100617.28;5114450;27;68985;-49
2024/01/15 04:48:30;;;;;;;;;12.00;12.00;;;;;3.21;74.31;100608.47;5119345;27;45387;-48
2024/01/15 04:50:56;;;;;;;;;14.50;11.00;;;;;3.23;74.00;100600.53;5115660;27;69360;-51
2024/01/15 04:53:21;;;;;;;;;13.25;10.25;;;;;3.23;74.44;100600.53;5109204;27;71081;-50
2024/01/15 04:55:46;;;;;;;;;15.75;12.25;;;;;3.25;74.90;100598.75;5110772;27;72341;-49
2024/01/15 04:58:12;;;;;;;;;11.75;8.25;;;;;3.22;74.58;100598.78;5112741;27;45407;-49
2024/01/15 05:00:37;;;;;;;;;11.67;8.00;;;;;3.22;74.76;100604.06;5111976;27;67728;-48
2024/01/15 05:03:03;;;;;;;;;12.25;8.25;;;;;3.24;74.98;100610.16;5117835;27;45573;-47
2024/01/15 05:05:28;;;;;;;;;9.25;8.25;;;;;3.27;74.71;100620.59;5107565;27;45355;-50
2024/01/15 05:07:53;;;;;;;;;11.67;7.67;;;;;3.27;75.03;100610.97;5110982;27;69182;-47
2024/01/15 05:10:19;;;;;;;;;10.67;9.00;;;;;3.30;75.29;100617.91;5107750;27;45659;-51
2024/01/15 05:12:44;;;;;;;;;8.00;7.00;;;;;3.33;75.31;100615.19;5114098;27;46948;-51
2024/01/15 05:15:10;;;;;;;;;9.00;9.00;;;;;3.36;75.13;100623.00;5110211;27;61112;-49
2024/01/15 05:17:35;;;;;;;;;12.67;11.00;;;;;3.38;75.01;100609.84;5118846;27;45828;-49
2024/01/15 05:20:00;;;;;;;;;22.00;12.50;;;;;3.40;75.21;100608.91;5116000;27;70498;-48
2024/01/15 05:22:25;;;;;;;;;8.33;8.00;;;;;3.41;74.93;100602.72;5111685;27;50644;-51
2024/01/15 05:24:51;;;;;;;;;14.33;8.33;;;;;3.42;74.72;100603.63;5110428;27;45436;-48
2024/01/15 05:27:16;;;;;;;;;12.00;8.67;;;;;3.43;75.13;100600.09;5117267;27;45402;-48
2024/01/15 05:29:42;;;;;;;;;12.00;9.00;;;;;3.43;74.91;100593.06;5117691;27;69739;-49
2024/01/15 05:32:07;;;;;;;;;9.00;7.33;;;;;3.42;74.87;100596.56;5117360;27;75673;-48
2024/01/15 05:34:32;;;;;;;;;12.33;10.33;;;;;3.44;75.26;100591.28;5111407;27;65458;-49
2024/01/15 05:36:58;;;;;;;;;13.00;8.33;;;;;3.44;75.16;100594.78;5110581;27;45292;-46
2024/01/15 05:39:23;;;;;;;;;12.33;12.00;;;;;3.45;75.62;100590.38;5112897;27;45511;-50
2024/01/15 05:41:48;;;;;;;;;12.00;10.33;;;;;3.45;75.17;100585.13;5118963;27;46172;-48
2024/01/15 05:44:13;;;;;;;;;12.00;6.67;;;;;3.47;75.72;100584.19;5119330;27;70724;-46
2024/01/15 05:46:39;;;;;;;;;8.67;8.33;;;;;3.45;75.69;100580.72;5118779;27;67799;-47
2024/01/15 05:49:04;;;;;;;;;19.33;14.00;;;;;3.45;75.04;100575.44;5115433;27;69456;-46
2024/01/15 05:51:29;;;;;;;;;13.75;11.75;;;;;3.45;75.45;100575.44;5101222;27;46902;-45
2024/01/15 05:53:55;;;;;;;;;14.67;8.67;;;;;3.46;75.81;100577.19;5113482;27;45445;-48
2024/01/15 05:56:20;;;;;;;;;11.00;9.00;;;;;3.47;75.67;100581.56;5120162;27;68711;-47
2024/01/15 05:58:45;;;;;;;;;10.75;10.75;;;;;3.48;75.64;100578.03;5120071;27;68630;-50
2024/01/15 06:01:11;;;;;;;;;7.67;7.67;;;;;3.50;76.23;100574.50;5120234;27;69202;-48
2024/01/15 06:03:36;;;;;;;;;15.00;9.00;;;;;3.53;75.66;100577.03;5114686;27;72373;-47
2024/01/15 06:06:02;;;;;;;;;10.33;7.33;;;;;3.53;75.70;100571.78;5121055;27;45881;-50
2024/01/15 06:08:27;;;;;;;;;13.67;12.00;;;;;3.53;76.30;100577.03;5121507;27;45444;-48
2024/01/15 06:10:53;;;;;;;;;8.67;6.00;;;;;3.54;76.51;100574.38;5120064;27;47142;-47
2024/01/15 06:13:18;;;;;;;;;8.00;8.00;;;;;3.56;76.42;100574.31;5120196;27;45540;-47
2024/01/15 06:15:44;;;;;;;;;14.67;9.00;;;;;3.58;76.26;100577.81;5117159;27;56386;-49
2024/01/15 06:18:09;;;;;;;;;8.33;8.33;;;;;3.58;76.03;100577.81;5116171;27;67297;-46
2024/01/15 06:20:35;;;;;;;;;10.33;9.00;;;;;3.58;75.67;100575.16;5116289;27;48472;-46
2024/01/15 06:23:00;;;;;;;;;11.67;10.33;;;;;3.58;76.00;100572.53;5115661;27;45344;-46
2024/01/15 06:25:25;;;;;;;;;9.25;9.25;;;;;3.58;76.03;100575.16;5121516;27;45397;-49
2024/01/15 06:27:51;;;;;;;;;12.00;9.00;;;;;3.56;76.44;100576.97;5118044;27;69121;-49
2024/01/15 06:30:16;;;;;;;;;13.00;8.33;;;;;3.57;76.85;100579.56;5121045;27;45731;-49
2024/01/15 06:32:41;;;;;;;;;13.33;9.67;;;;;3.58;76.36;100585.69;5117564;27;73205;-49
2024/01/15 06:35:07;;;;;;;;;10.33;9.00;;;;;3.59;76.08;100583.00;5112401;27;62929;-50
2024/01/15 06:37:32;;;;;;;;;8.33;8.00;;;;;3.59;75.72;100583.00;5117725;27;45534;-50
2024/01/15 06:39:58;;;;;;;;;10.67;7.33;;;;;3.59;76.17;100574.28;5118702;27;46168;-48
2024/01/15 06:42:25;;;;;;;;;9.67;9.67;;;;;3.61;76.84;100572.44;5118703;27;45307;-55
2024/01/15 06:44:50;;;;;;;;;10.33;9.00;;;;;3.62;76.43;100579.44;5118773;27;69203;-48
2024/01/15 06:47:17;;;;;;;;;11.33;8.33;;;;;3.64;77.29;100598.69;5120618;27;45620;-51
2024/01/15 06:49:42;;;;;;;;;11.00;9.00;;;;;3.68;76.30;100591.56;5120853;27;46190;-50
2024/01/15 06:52:08;;;;;;;;;9.00;9.00;;;;;3.68;76.19;100592.47;5117563;27;45763;-48
2024/01/15 06:54:33;;;;;;;;;15.00;10.33;;;;;3.70;76.55;100593.25;5112368;27;45460;-47
2024/01/15 06:56:58;;;;;;;;;16.00;13.67;;;;;3.71;75.98;100588.88;5119278;27;45596;-50
2024/01/15 06:59:24;;;;;;;;;11.00;9.00;;;;;3.70;76.39;100593.25;5118478;27;46200;-49
2024/01/15 07:01:49;;;;;;;;;12.00;8.67;;;;;3.70;76.87;100588.00;5118599;27;45489;-52
2024/01/15 07:04:15;;;;;;;;;10.67;9.67;;;;;3.71;76.55;100581.84;5115243;27;45286;-49
2024/01/15 07:06:41;;;;;;;;;12.00;9.67;;;;;3.72;77.01;100582.72;5110476;27;45300;-47
2024/01/15 07:09:07;;;;;;;;;17.33;14.67;;;;;3.71;76.32;100579.22;5115757;27;73791;-46
2024/01/15 07:11:32;;;;;;;;;11.00;8.67;;;;;3.72;76.58;100572.22;5116761;27;45598;-52
2024/01/15 07:13:58;;;;;;;;;15.00;9.00;;;;;3.72;76.99;100599.38;5117725;27;45383;-47
2024/01/15 07:16:23;;;;;;;;;14.33;11.67;;;;;3.74;76.72;100588.78;5117515;27;45659;-45
2024/01/15 07:18:49;;;;;;;;;18.00;12.00;;;;;3.75;77.18;100582.63;5119104;27;57492;-47
2024/01/15 07:21:14;;;;;;;;;16.33;13.33;;;;;3.78;76.70;100600.97;5119176;27;63909;-47
2024/01/15 07:23:40;;;;;;;;;18.00;12.33;;;;;3.75;76.90;100609.81;5120292;27;45428;-47
2024/01/15 07:26:05;;;;;;;;;16.67;13.00;;;;;3.76;76.28;100606.28;5114025;27;45842;-46
2024/01/15 07:28:31;;;;;;;;;13.33;11.33;;;;;3.75;77.04;100608.94;5118448;27;72912;-45
2024/01/15 07:30:56;;;;;;;;;6.50;6.50;;;;;3.75;76.34;100617.69;5117876;27;45439;-49
2024/01/15 07:33:22;;;;;;;;;21.00;15.67;;;;;3.75;76.57;100608.94;5113153;27;45458;-49
2024/01/15 07:35:47;;;;;;;;;10.00;9.67;;;;;3.73;76.63;100613.38;5106591;27;45711;-48
2024/01/15 07:38:12;;;;;;;;;13.67;13.33;;;;;3.73;76.73;100616.88;5116536;27;64534;-48
2024/01/15 07:40:38;;;;;;;;;13.00;11.67;;;;;3.71;76.61;100621.31;5118512;27;45900;-48
2024/01/15 07:43:03;;;;;;;;;16.25;12.25;;;;;3.72;76.98;100619.56;5119091;27;57599;-48
2024/01/15 07:45:29;;;;;;;;;11.33;10.33;;;;;3.71;76.83;100631.84;5136562;27;45442;-49
2024/01/15 07:47:55;;;;;;;;;11.67;11.67;;;;;3.71;76.96;100629.19;5118545;27;45655;-48
2024/01/15 07:50:20;;;;;;;;;18.75;14.75;;;;;3.73;76.62;100631.78;5119213;27;73072;-47
2024/01/15 07:52:45;;;;;;;;;15.00;13.00;;;;;3.72;76.51;100630.09;5118264;27;49767;-48
2024/01/15 07:55:11;;;;;;;;;14.25;14.00;;;;;3.72;76.35;100627.47;5116366;27;69116;-48
2024/01/15 07:57:36;;;;;;;;;11.33;10.67;;;;;3.71;76.85;100629.19;5120180;27;47005;-47
2024/01/15 08:00:04;;;;;;;;;14.00;10.33;;;;;3.72;76.89;100638.84;5119031;27;61081;-50
2024/01/15 08:02:30;;;;;;;;;16.33;12.00;;;;;3.73;76.86;100634.41;5118894;27;45412;-48
2024/01/15 08:04:55;;;;;;;;;21.67;15.33;;;;;3.74;77.13;100639.66;5111573;27;45661;-47
2024/01/15 08:07:20;;;;;;;;;15.75;13.50;;;;;3.77;76.65;100647.47;5118591;27;75426;-49
2024/01/15 08:09:47;;;;;;;;;19.00;18.00;;;;;3.78;76.75;100651.84;5118789;27;45330;-52
2024/01/15 08:12:13;;;;;;;;;18.25;13.75;;;;;3.77;76.81;100639.59;5119383;27;45384;-49
2024/01/15 08:14:38;;;;;;;;;17.67;17.67;;;;;3.79;76.29;100644.81;5120280;27;45486;-49
2024/01/15 08:17:04;;;;;;;;;15.33;15.33;;;;;3.78;77.21;100636.06;5118230;27;75254;-47
2024/01/15 08:19:29;;;;;;;;;19.33;16.33;;;;;3.80;77.00;100643.91;5119727;27;45432;-46
2024/01/15 08:21:55;;;;;;;;;17.00;12.67;;;;;3.80;77.03;100654.44;5117013;27;45411;-46
2024/01/15 08:24:20;;;;;;;;;20.00;17.00;;;;;3.79;76.49;100656.22;5119430;27;45468;-50
2024/01/15 08:26:45;;;;;;;;;19.33;14.00;;;;;3.79;76.33;100658.84;5118827;27;71152;-49
2024/01/15 08:29:11;;;;;;;;;20.00;15.50;;;;;3.82;76.91;100655.28;5114795;27;64289;-47
2024/01/15 08:31:36;;;;;;;;;15.67;13.33;;;;;3.84;76.92;100657.88;5114361;27;45306;-49
2024/01/15 08:34:01;;;;;;;;;14.67;12.67;;;;;3.86;76.83;100656.94;5110471;27;50516;-51
2024/01/15 08:36:28;;;;;;;;;18.00;15.33;;;;;3.89;76.65;100661.25;5118412;27;45769;-50
2024/01/15 08:38:53;;;;;;;;;17.33;14.33;;;;;3.91;76.95;100665.56;5110243;27;45230;-49
2024/01/15 08:41:18;;;;;;;;;16.00;10.00;;;;;3.94;76.88;100668.13;5111112;27;68435;-51
2024/01/15 08:43:44;;;;;;;;;14.00;13.00;;;;;3.97;77.20;100672.44;5109523;27;71578;-52
2024/01/15 08:46:09;;;;;;;;;14.67;12.00;;;;;4.00;77.38;100671.50;5111246;27;74541;-49
2024/01/15 08:48:34;;;;;;;;;14.67;13.33;;;;;4.01;77.10;100684.63;5101753;27;45355;-49
2024/01/15 08:51:00;;;;;;;;;22.00;14.33;;;;;4.05;76.98;100688.91;5101871;27;69010;-49
2024/01/15 08:53:25;;;;;;;;;15.50;15.00;;;;;4.09;76.49;100697.59;5119448;27;45421;-48
2024/01/15 08:55:51;;;;;;;;;16.00;12.25;;;;;4.11;76.39;100701.91;5108760;27;46048;-46
2024/01/15 08:58:16;;;;;;;;;19.33;16.67;;;;;4.11;76.70;100704.56;5105900;27;50002;-50
2024/01/15 09:00:41;;;;;;;;;16.67;15.33;;;;;4.13;76.18;100715.94;5119122;27;53432;-52
2024/01/15 09:03:08;;;;;;;;;14.33;14.00;;;;;4.16;76.22;100712.34;5101509;27;70665;-52
2024/01/15 09:05:33;;;;;;;;;13.00;13.00;;;;;4.19;76.17;100712.25;5099190;27;47372;-47
2024/01/15 09:07:59;;;;;;;;;16.67;15.33;;;;;4.23;75.80;100708.66;5113248;27;45388;-51
2024/01/15 09:10:24;;;;;;;;;19.67;14.67;;;;;4.26;75.52;100710.34;5109910;27;63718;-49
2024/01/15 09:12:49;;;;;;;;;22.67;15.33;;;;;4.28;75.36;100719.94;5106705;27;45385;-48
2024/01/15 09:15:15;;;;;;;;;13.33;11.67;;;;;4.33;75.75;100724.22;5107221;27;75477;-47
2024/01/15 09:17:40;;;;;;;;;13.67;11.00;;;;;4.38;75.42;100724.97;5107815;27;45434;-47
2024/01/15 09:20:06;;;;;;;;;14.00;12.67;;;;;4.43;74.54;100723.97;5101629;27;66328;-47
2024/01/15 09:22:32;;;;;;;;;18.67;15.33;;;;;4.53;74.74;100718.44;5106753;27;45336;-47
2024/01/15 09:24:57;;;;;;;;;18.67;11.00;;;;;4.54;73.86;100715.78;5121290;27;73574;-51
2024/01/15 09:27:23;;;;;;;;;15.25;13.75;;;;;4.52;73.81;100714.94;5114005;27;45385;-47
2024/01/15 09:29:48;;;;;;;;;12.33;9.67;;;;;4.45;74.13;100708.97;5110007;27;55344;-48
2024/01/15 09:32:13;;;;;;;;;21.00;15.50;;;;;4.38;73.79;100719.69;5115307;27;45335;-52
2024/01/15 09:34:39;;;;;;;;;15.00;13.50;;;;;4.33;73.82;100713.69;5111657;27;75716;-50
2024/01/15 09:37:05;;;;;;;;;19.00;15.00;;;;;4.28;73.61;100713.81;5115358;27;45407;-50
2024/01/15 09:39:31;;;;;;;;;14.00;14.00;;;;;4.26;73.42;100719.13;5118026;27;45438;-51
2024/01/15 09:41:57;;;;;;;;;21.67;12.00;;;;;4.26;73.69;100727.03;5114494;27;45322;-48
2024/01/15 09:44:22;;;;;;;;;8.67;8.67;;;;;4.38;74.03;100731.13;5117082;27;46181;-47
2024/01/15 09:46:50;;;;;;;;;15.67;10.33;;;;;4.61;73.74;100733.13;5113321;27;65695;-49
2024/01/15 09:49:16;;;;;;;;;16.67;10.00;;;;;4.88;73.21;100735.09;5122035;27;45404;-49
2024/01/15 09:51:41;;;;;;;;;15.67;11.67;;;;;5.00;72.61;100733.88;5113933;27;45582;-52
2024/01/15 09:54:08;;;;;;;;;13.00;10.67;;;;;5.01;72.01;100738.25;5120310;27;46657;-50
2024/01/15 09:56:33;;;;;;;;;19.67;15.00;;;;;5.06;71.65;100738.97;5120875;27;45400;-51
2024/01/15 09:59:00;;;;;;;;;11.33;11.33;;;;;5.22;71.90;100747.31;5114587;27;68115;-48
2024/01/15 10:01:26;;;;;;;;;12.33;11.00;;;;;5.85;71.39;100745.44;5119675;27;45526;-50
2024/01/15 10:03:52;;;;;;;;;11.00;10.00;;;;;6.70;68.91;100740.06;5110907;27;45917;-48
2024/01/15 10:06:18;;;;;;;;;8.00;8.00;;;;;6.99;68.79;100746.09;5121968;27;45452;-50
2024/01/15 10:08:48;;;;;;;;;15.67;13.33;;;;;7.87;68.18;100745.41;5117118;27;45435;-51
2024/01/15 10:11:13;;;;;;;;;17.33;9.67;;;;;9.07;66.83;100744.88;5120088;27;45639;-49
2024/01/15 10:13:39;;;;;;;;;9.33;8.67;;;;;10.19;62.71;100751.16;5116460;27;46298;-47
2024/01/15 10:16:05;;;;;;;;;10.00;9.67;;;;;11.17;59.78;100752.47;5117735;27;45357;-49
2024/01/15 10:18:30;;;;;;;;;11.00;10.67;;;;;11.99;59.92;100741.81;5114808;27;45424;-50
2024/01/15 10:20:57;;;;;;;;;13.33;10.67;;;;;12.66;56.50;100755.72;5120436;27;69409;-49
2024/01/15 10:23:23;;;;;;;;;9.67;9.67;;;;;13.16;57.23;100748.25;5120193;27;47228;-48
2024/01/15 10:25:48;;;;;;;;;6.67;5.00;;;;;13.54;54.01;100737.00;5120145;27;45798;-50
2024/01/15 10:28:14;;;;;;;;;3.33;3.33;;;;;13.96;56.60;100747.72;5109209;27;58735;-51
2024/01/15 10:30:39;;;;;;;;;8.33;5.00;;;;;14.22;51.00;100739.78;5121708;27;45396;-49
2024/01/15 10:33:05;;;;;;;;;12.33;12.00;;;;;14.49;55.32;100739.75;5119047;27;70602;-52
2024/01/15 10:35:31;;;;;;;;;7.00;6.00;;;;;14.70;50.56;100741.97;5120316;27;45533;-49
2024/01/15 10:37:57;;;;;;;;;6.33;5.00;;;;;14.78;48.92;100741.44;5114571;27;45344;-51
2024/01/15 10:40:22;;;;;;;;;9.00;7.00;;;;;14.88;51.28;100742.53;5115832;27;45371;-49
2024/01/15 10:42:48;;;;;;;;;10.67;6.00;;;;;14.86;48.08;100745.31;5121154;27;48939;-48
2024/01/15 10:45:14;;;;;;;;;7.33;6.00;;;;;14.78;50.03;100739.63;5114634;27;45156;-50
2024/01/15 10:47:40;;;;;;;;;4.00;4.00;;;;;14.53;46.14;100748.44;5115503;27;45602;-48
2024/01/15 10:50:07;;;;;;;;;4.00;4.00;;;;;14.43;47.21;100744.66;5119973;27;45475;-50
2024/01/15 10:52:34;;;;;;;;;7.00;5.67;;;;;14.51;45.67;100745.88;5119629;27;47152;-53
2024/01/15 10:55:00;;;;;;;;;3.67;3.00;;;;;14.29;48.48;100740.22;5119576;27;45450;-52
2024/01/15 10:57:26;;;;;;;;;3.00;3.00;;;;;14.02;44.31;100749.97;5119185;27;61611;-50
2024/01/15 10:59:51;;;;;;;;;4.33;2.00;;;;;13.97;43.57;100756.59;5113882;27;70826;-51
2024/01/15 11:02:17;;;;;;;;;2.00;2.00;;;;;13.94;46.47;100743.44;5115012;27;47207;-50
2024/01/15 11:04:42;;;;;;;;;2.33;2.00;;;;;13.93;43.33;100742.56;5108428;27;72371;-50
2024/01/15 11:07:08;;;;;;;;;1.67;1.67;;;;;13.72;43.66;100755.50;5118539;27;63464;-49
2024/01/15 11:09:34;;;;;;;;;3.00;1.67;;;;;13.79;43.69;100758.63;5114139;27;45594;-51
2024/01/15 11:12:10;;;;;;;;;2.67;2.67;;;;;13.94;40.84;100762.16;5114386;27;45408;-52